Time;durP1;ratioP1;P1;durP2;ratioP2;P2;SDS_P1;SDS_P2;PMS_P1;PMS_P2;Temp;Humidity;BMP_temperature;BMP_pressure;BME280_temperature;BME280_humidity;BME280_pressure;Samples;Min_cycle;Max_cycle;Signal;HPM_P1;HPM_P2
2023/10/29 00:00:41;;;;;;;4.90;2.90;;;;;;;11.52;68.51;97215.75;4983699;28;103310;-66
2023/10/29 00:07:29;;;;;;;5.13;2.80;;;;;;;11.37;68.97;97208.88;4977611;28;102763;-66
2023/10/29 00:09:57;;;;;;;6.25;2.85;;;;;;;11.41;68.56;97214.53;4981691;28;102672;-66
2023/10/29 00:12:25;;;;;;;5.95;3.50;;;;;;;11.41;68.66;97207.41;4980793;28;103319;-66
2023/10/29 00:14:53;;;;;;;7.32;3.60;;;;;;;11.39;69.24;97206.00;4965978;28;103643;-66
2023/10/29 00:17:21;;;;;;;5.40;3.08;;;;;;;11.40;69.25;97216.38;4984416;28;102716;-66
2023/10/29 00:19:50;;;;;;;4.40;2.50;;;;;;;11.41;68.99;97220.66;4983143;28;103881;-66
2023/10/29 00:22:18;;;;;;;4.05;2.33;;;;;;;11.45;68.99;97221.88;4980807;28;103993;-66
2023/10/29 00:24:47;;;;;;;4.45;2.58;;;;;;;11.51;68.42;97211.47;4982676;28;103355;-66
2023/10/29 00:27:15;;;;;;;5.82;3.13;;;;;;;11.51;68.43;97212.25;4986749;28;102528;-65
2023/10/29 00:29:45;;;;;;;9.60;3.40;;;;;;;11.54;68.20;97208.38;4966298;28;103941;-66
2023/10/29 00:32:14;;;;;;;5.95;3.65;;;;;;;11.50;68.61;97212.47;4966532;28;103373;-66
2023/10/29 00:34:42;;;;;;;5.60;2.50;;;;;;;11.51;68.66;97211.47;4963247;28;104573;-66
2023/10/29 00:37:10;;;;;;;4.20;2.83;;;;;;;11.49;68.61;97210.84;4971776;28;103740;-66
2023/10/29 00:39:38;;;;;;;4.50;2.60;;;;;;;11.46;68.65;97206.78;4973282;28;104001;-66
2023/10/29 00:42:10;;;;;;;4.30;2.55;;;;;;;11.43;69.10;97197.41;4967709;28;104417;-66
2023/10/29 00:44:38;;;;;;;4.28;2.50;;;;;;;11.42;68.93;97206.41;4972131;28;104564;-65
2023/10/29 00:47:06;;;;;;;4.93;2.45;;;;;;;11.43;68.96;97202.69;4992178;28;102606;-66
2023/10/29 00:58:01;;;;;;;3.60;2.22;;;;;;;11.29;69.03;97206.44;4975083;28;103065;-65
2023/10/29 01:00:29;;;;;;;6.22;2.97;;;;;;;11.26;69.17;97196.25;4964995;28;102842;-66
2023/10/29 01:02:58;;;;;;;4.10;2.15;;;;;;;11.25;69.37;97207.88;4966147;28;102787;-66
2023/10/29 01:05:28;;;;;;;4.22;2.15;;;;;;;11.28;68.06;97191.56;4981293;28;103193;-66
2023/10/29 01:07:56;;;;;;;2.97;2.05;;;;;;;11.36;67.79;97188.69;4980994;28;103088;-65
2023/10/29 01:10:26;;;;;;;5.35;2.70;;;;;;;11.33;67.94;97175.03;4986105;28;102632;-66
2023/10/29 01:12:54;;;;;;;4.25;2.33;;;;;;;11.23;68.36;97170.19;4985029;28;102822;-66
2023/10/29 01:15:23;;;;;;;3.63;2.17;;;;;;;11.30;68.05;97186.06;4964636;28;104210;-66
2023/10/29 01:17:51;;;;;;;4.00;2.50;;;;;;;11.35;67.41;97195.00;4970145;28;103480;-66
2023/10/29 01:20:19;;;;;;;3.47;2.13;;;;;;;11.40;67.57;97192.53;4970896;28;102792;-67
2023/10/29 01:22:48;;;;;;;4.15;2.50;;;;;;;11.43;67.67;97197.41;4983839;28;104025;-66
2023/10/29 01:25:17;;;;;;;3.80;2.03;;;;;;;11.47;67.41;97186.41;4960197;28;104435;-66
2023/10/29 01:27:47;;;;;;;4.10;2.15;;;;;;;11.42;67.88;97182.53;4964117;28;103165;-66
2023/10/29 01:30:15;;;;;;;7.47;3.05;;;;;;;11.41;68.21;97188.88;4982016;28;102709;-66
2023/10/29 01:32:45;;;;;;;4.18;2.45;;;;;;;11.41;68.43;97177.44;4982275;28;102702;-66
2023/10/29 01:35:13;;;;;;;3.60;2.20;;;;;;;11.37;68.48;97169.09;4974151;28;104295;-66
2023/10/29 01:37:41;;;;;;;5.55;2.60;;;;;;;11.36;68.62;97169.31;4985819;28;103225;-66
2023/10/29 01:40:09;;;;;;;4.80;2.70;;;;;;;11.38;68.42;97167.25;4963751;28;103235;-66
2023/10/29 01:42:40;;;;;;;5.47;2.80;;;;;;;11.39;68.79;97160.94;4985464;28;104444;-66
2023/10/29 01:45:10;;;;;;;4.40;2.50;;;;;;;11.36;68.31;97159.53;4968525;28;104230;-66
2023/10/29 01:47:38;;;;;;;5.18;2.30;;;;;;;11.37;68.00;97149.72;4966655;28;103272;-66
2023/10/29 01:50:08;;;;;;;6.43;2.95;;;;;;;11.38;67.95;97135.44;4959566;28;102801;-66
2023/10/29 01:56:48;;;;;;;5.63;2.90;;;;;;;11.31;67.86;97118.78;4981279;28;103721;-65
2023/10/29 01:59:16;;;;;;;4.85;2.70;;;;;;;11.28;67.61;97120.81;4966380;28;104379;-66
2023/10/29 02:01:44;;;;;;;7.38;2.95;;;;;;;11.27;67.42;97128.97;4970921;28;102802;-65
2023/10/29 02:04:12;;;;;;;5.75;2.90;;;;;;;11.17;67.45;97133.91;4965313;28;102787;-65
2023/10/29 02:06:41;;;;;;;4.95;2.67;;;;;;;11.19;67.09;97123.94;4986121;28;103250;-65
2023/10/29 02:13:34;;;;;;;3.45;2.20;;;;;;;11.23;66.61;97117.19;4975708;28;103271;-65
2023/10/29 02:16:03;;;;;;;5.43;2.60;;;;;;;11.28;66.13;97112.06;4965442;28;102711;-65
2023/10/29 02:18:31;;;;;;;5.10;2.33;;;;;;;11.32;66.01;97110.59;4981094;28;103228;-66
2023/10/29 02:20:59;;;;;;;4.30;2.17;;;;;;;11.33;65.68;97098.16;4961755;28;104055;-66
2023/10/29 02:23:28;;;;;;;3.55;2.08;;;;;;;11.34;66.19;97097.94;4973340;28;102813;-66
2023/10/29 02:25:56;;;;;;;4.57;2.28;;;;;;;11.31;66.33;97093.06;4968465;28;102877;-65
2023/10/29 02:28:24;;;;;;;4.30;2.75;;;;;;;11.28;66.53;97098.81;4968172;28;104479;-67
2023/10/29 02:30:52;;;;;;;6.43;2.75;;;;;;;11.26;66.56;97100.84;4982777;28;103416;-66
2023/10/29 02:33:20;;;;;;;5.05;2.47;;;;;;;11.23;66.17;97090.69;4988099;28;103121;-65
2023/10/29 02:35:49;;;;;;;4.50;2.30;;;;;;;11.26;66.17;97092.91;4965322;28;102666;-66
2023/10/29 02:38:18;;;;;;;3.72;2.40;;;;;;;11.30;66.04;97096.75;4972420;28;103750;-65
2023/10/29 02:40:47;;;;;;;4.00;2.53;;;;;;;11.34;66.11;97095.28;4981971;28;103220;-65
2023/10/29 02:43:15;;;;;;;4.70;2.58;;;;;;;11.34;65.92;97090.00;4979685;28;102614;-65
2023/10/29 02:45:46;;;;;;;7.35;3.10;;;;;;;11.31;65.56;97087.78;4963484;28;104102;-65
2023/10/29 02:48:16;;;;;;;3.90;2.42;;;;;;;11.28;66.20;97096.16;4963522;28;103261;-65
2023/10/29 02:50:44;;;;;;;6.38;2.65;;;;;;;11.30;66.31;97102.03;4974019;28;103080;-65
2023/10/29 02:53:13;;;;;;;4.63;2.42;;;;;;;11.32;66.26;97093.88;4983055;28;102778;-65
2023/10/29 02:55:41;;;;;;;4.78;2.20;;;;;;;11.22;66.48;97099.66;4980638;28;102676;-65
2023/10/29 02:58:10;;;;;;;4.32;2.60;;;;;;;11.23;66.05;97095.97;4970861;28;104457;-66
2023/10/29 03:00:38;;;;;;;4.75;2.47;;;;;;;11.23;66.03;97091.47;4982872;28;103342;-65
2023/10/29 03:03:06;;;;;;;5.18;2.70;;;;;;;11.19;66.71;97094.78;4979741;28;102738;-65
2023/10/29 03:05:35;;;;;;;6.78;3.10;;;;;;;11.08;66.74;97083.00;4975744;28;102765;-65
2023/10/29 03:08:22;;;;;;;4.70;3.35;;;;;;;10.86;67.73;97074.53;4969379;28;103930;-66
2023/10/29 03:10:51;;;;;;;4.60;2.33;;;;;;;10.98;67.63;97072.84;4968586;28;103257;-66
2023/10/29 03:13:20;;;;;;;3.30;1.95;;;;;;;11.03;67.57;97082.81;4964533;28;102709;-66
2023/10/29 03:15:48;;;;;;;4.78;2.30;;;;;;;11.10;67.27;97087.06;4977053;28;103064;-65
2023/10/29 03:18:17;;;;;;;3.47;2.08;;;;;;;11.09;66.59;97085.41;4984483;28;103238;-66
2023/10/29 03:20:45;;;;;;;4.35;1.80;;;;;;;11.12;66.46;97078.88;4988291;28;102961;-66
2023/10/29 03:28:08;;;;;;;3.08;2.10;;;;;;;11.15;66.33;97081.13;4974491;28;102653;-66
2023/10/29 03:35:03;;;;;;;2.92;1.77;;;;;;;11.13;66.32;97090.31;4979930;28;103072;-66
2023/10/29 03:37:31;;;;;;;2.30;1.50;;;;;;;11.10;66.38;97084.41;4965545;28;102633;-66
2023/10/29 03:44:32;;;;;;;3.22;1.50;;;;;;;11.10;66.54;97087.06;4977119;28;103654;-66
2023/10/29 03:55:51;;;;;;;5.43;1.90;;;;;;;10.98;67.06;97091.41;4977500;28;103632;-66
2023/10/29 03:58:21;;;;;;;2.83;1.50;;;;;;;10.96;67.01;97090.78;4969037;28;103632;-66
2023/10/29 04:00:52;;;;;;;3.17;1.70;;;;;;;10.99;65.56;97093.03;4962589;28;104196;-66
2023/10/29 04:07:33;;;;;;;3.17;1.80;;;;;;;11.08;62.78;97094.41;4982022;28;102722;-66
2023/10/29 04:10:01;;;;;;;3.60;1.73;;;;;;;11.21;61.72;97088.22;4975360;28;104503;-65
2023/10/29 04:12:32;;;;;;;4.38;2.22;;;;;;;11.28;61.79;97090.84;4983443;28;103260;-66
2023/10/29 04:15:04;;;;;;;4.57;1.60;;;;;;;11.32;61.73;97104.47;4964214;28;103172;-65
2023/10/29 04:17:33;;;;;;;3.55;1.80;;;;;;;11.36;60.49;97089.81;4984596;28;103802;-66
2023/10/29 04:20:05;;;;;;;2.75;1.70;;;;;;;11.42;60.70;97087.09;4978174;28;103345;-66
2023/10/29 04:22:34;;;;;;;2.05;1.30;;;;;;;11.45;60.76;97099.13;4982309;28;103234;-66
2023/10/29 04:25:04;;;;;;;1.90;1.35;;;;;;;11.48;59.49;97087.28;4982195;28;102606;-66
2023/10/29 04:27:33;;;;;;;2.20;1.65;;;;;;;11.50;60.21;97085.22;4983415;28;103906;-65
2023/10/29 04:30:02;;;;;;;2.65;1.50;;;;;;;11.49;60.02;97068.50;4980560;28;103927;-66
2023/10/29 04:32:32;;;;;;;2.80;1.60;;;;;;;11.53;59.72;97074.16;4983470;28;103308;-66
2023/10/29 04:35:00;;;;;;;2.40;1.35;;;;;;;11.54;59.63;97066.03;4983935;28;102988;-66
2023/10/29 04:37:28;;;;;;;2.97;1.60;;;;;;;11.49;60.74;97060.56;4986604;28;102748;-66
2023/10/29 04:39:56;;;;;;;2.13;1.60;;;;;;;11.49;60.32;97062.38;4979954;28;104103;-66
2023/10/29 04:42:24;;;;;;;6.60;2.00;;;;;;;11.54;60.08;97070.50;4984698;28;103273;-65
2023/10/29 04:44:55;;;;;;;2.22;1.70;;;;;;;11.58;60.52;97067.22;4990662;28;102596;-66
2023/10/29 04:47:23;;;;;;;2.70;1.80;;;;;;;11.58;60.50;97077.00;4982977;28;103852;-66
2023/10/29 04:49:51;;;;;;;4.68;2.00;;;;;;;11.57;60.68;97070.09;4982356;28;104480;-67
2023/10/29 04:52:19;;;;;;;3.63;2.17;;;;;;;11.53;60.87;97071.53;4982779;28;103273;-65
2023/10/29 04:54:47;;;;;;;4.65;2.03;;;;;;;11.55;60.69;97072.13;4986375;28;102603;-66
2023/10/29 04:57:20;;;;;;;4.10;2.05;;;;;;;11.56;61.14;97060.50;4983279;28;103572;-66
2023/10/29 04:59:52;;;;;;;3.33;1.90;;;;;;;11.56;61.48;97058.66;4981766;28;103082;-66
2023/10/29 05:06:40;;;;;;;3.80;2.10;;;;;;;11.57;61.06;97054.97;4985454;28;102696;-66
2023/10/29 05:09:09;;;;;;;3.45;2.10;;;;;;;11.58;61.02;97055.78;4983859;28;103908;-66
2023/10/29 05:11:37;;;;;;;2.75;1.73;;;;;;;11.58;61.11;97047.81;4985095;28;102776;-66
2023/10/29 05:14:05;;;;;;;2.67;1.60;;;;;;;11.59;61.87;97037.03;4962994;28;103956;-66
2023/10/29 05:16:33;;;;;;;2.53;1.80;;;;;;;11.58;61.86;97050.47;4978949;28;102572;-66
2023/10/29 05:27:39;;;;;;;2.80;1.70;;;;;;;11.57;61.46;97041.72;4985732;28;103167;-67
2023/10/29 05:44:11;;;;;;;3.38;1.83;;;;;;;11.53;61.00;97043.19;4977386;28;103202;-66
2023/10/29 05:55:29;;;;;;;2.05;1.40;;;;;;;11.56;62.16;97044.59;4981434;28;103163;-67
2023/10/29 05:57:58;;;;;;;3.47;1.58;;;;;;;11.59;62.48;97044.16;4989877;28;103342;-67
2023/10/29 06:00:26;;;;;;;2.80;1.90;;;;;;;11.57;62.79;97044.38;4982716;28;102620;-67
2023/10/29 06:07:24;;;;;;;4.22;1.70;;;;;;;11.56;63.24;97048.06;4982067;28;103158;-69
2023/10/29 06:09:52;;;;;;;2.83;1.60;;;;;;;11.58;62.98;97045.19;4981095;28;103388;-70
2023/10/29 06:12:23;;;;;;;2.33;1.60;;;;;;;11.56;63.10;97047.25;4986917;28;102677;-70
2023/10/29 06:14:51;;;;;;;5.30;2.22;;;;;;;11.53;62.82;97052.97;4987980;28;104148;-70
2023/10/29 06:17:19;;;;;;;2.40;1.45;;;;;;;11.55;62.36;97056.22;4979059;28;104110;-70
2023/10/29 06:19:54;;;;;;;2.58;1.70;;;;;;;11.56;61.73;97071.91;4965267;28;104287;-70
2023/10/29 06:22:22;;;;;;;4.13;1.90;;;;;;;11.61;61.56;97082.69;4980913;28;102553;-70
2023/10/29 06:24:50;;;;;;;5.78;2.13;;;;;;;11.62;61.75;97083.53;4980470;28;102662;-67
2023/10/29 06:27:17;;;;;;;3.25;1.90;;;;;;;11.63;61.91;97087.78;4980812;28;104046;-70
2023/10/29 06:29:47;;;;;;;5.22;2.42;;;;;;;11.63;63.71;97086.97;4962980;28;104386;-70
2023/10/29 06:36:42;;;;;;;4.47;2.17;;;;;;;11.36;63.30;97089.81;4981727;28;102818;-69
2023/10/29 06:39:10;;;;;;;6.18;2.17;;;;;;;11.36;63.46;97106.50;4986564;28;104051;-69
2023/10/29 06:41:38;;;;;;;4.40;1.60;;;;;;;11.33;64.04;97112.25;4990972;28;103723;-69
2023/10/29 06:44:06;;;;;;;3.58;2.00;;;;;;;11.34;64.01;97113.84;4987741;28;102722;-69
2023/10/29 06:46:35;;;;;;;3.42;2.10;;;;;;;11.34;63.84;97123.66;4989360;28;102760;-67
2023/10/29 06:49:03;;;;;;;2.65;1.83;;;;;;;11.37;64.28;97121.38;4982284;28;103817;-66
2023/10/29 06:51:31;;;;;;;2.47;1.63;;;;;;;11.40;63.95;97126.25;4979252;28;103309;-66
2023/10/29 06:53:59;;;;;;;2.63;1.63;;;;;;;11.50;64.09;97132.94;4982687;28;103147;-66
2023/10/29 06:56:27;;;;;;;5.70;2.30;;;;;;;11.52;64.08;97136.19;4984686;28;102747;-66
2023/10/29 06:58:55;;;;;;;3.75;1.80;;;;;;;11.57;64.35;97139.03;4963431;28;104686;-66
2023/10/29 07:01:23;;;;;;;2.70;1.77;;;;;;;11.55;63.60;97151.69;4972002;28;103100;-66
2023/10/29 07:03:52;;;;;;;3.58;1.92;;;;;;;11.60;63.51;97159.81;4982056;28;102722;-66
2023/10/29 07:06:21;;;;;;;6.00;3.05;;;;;;;11.62;63.32;97163.06;4962604;28;102802;-66
2023/10/29 07:08:49;;;;;;;4.10;2.65;;;;;;;11.65;62.68;97167.94;4950036;28;104359;-67
2023/10/29 07:11:17;;;;;;;6.45;2.90;;;;;;;11.72;62.79;97162.59;4947218;28;103216;-66
2023/10/29 07:13:45;;;;;;;6.53;3.53;;;;;;;11.77;63.29;97162.78;4957099;28;102671;-67
2023/10/29 07:16:16;;;;;;;7.30;3.80;;;;;;;11.85;62.18;97174.97;4958311;28;103199;-66
2023/10/29 07:18:44;;;;;;;5.57;3.17;;;;;;;11.76;62.06;97164.63;4936749;28;103284;-67
2023/10/29 07:21:14;;;;;;;4.75;2.67;;;;;;;11.82;62.76;97170.91;4958351;28;102984;-66
2023/10/29 07:28:35;;;;;;;4.75;2.80;;;;;;;11.90;62.74;97169.84;4948297;28;104143;-67
2023/10/29 07:39:56;;;;;;;3.53;1.95;;;;;;;11.97;60.86;97191.84;4956031;28;102796;-67
2023/10/29 07:50:54;;;;;;;3.30;2.15;;;;;;;12.08;62.58;97199.13;4951845;28;102924;-67
2023/10/29 07:57:49;;;;;;;7.53;4.22;;;;;;;12.25;61.71;97209.25;4953160;28;102826;-67
2023/10/29 08:00:22;;;;;;;4.13;2.60;;;;;;;12.37;61.11;97204.03;4955139;28;103367;-66
2023/10/29 08:02:50;;;;;;;5.00;1.98;;;;;;;12.49;60.20;97209.47;4967830;22;104124;-68
2023/10/29 08:05:18;;;;;;;5.82;2.53;;;;;;;12.61;59.26;97213.03;5014905;27;102616;-67
2023/10/29 08:07:46;;;;;;;3.22;1.95;;;;;;;12.70;61.15;97214.38;5000240;28;103812;-65
2023/10/29 08:10:17;;;;;;;4.50;2.15;;;;;;;12.87;60.34;97216.47;4997035;28;104224;-66
2023/10/29 08:12:45;;;;;;;3.83;2.15;;;;;;;12.98;61.40;97226.38;4999512;28;103249;-66
2023/10/29 08:15:13;;;;;;;3.85;1.92;;;;;;;13.09;61.17;97217.69;5009058;22;102639;-65
2023/10/29 08:17:43;;;;;;;3.80;1.65;;;;;;;13.16;61.39;97222.13;5000426;28;104125;-67
2023/10/29 08:20:16;;;;;;;3.55;2.00;;;;;;;13.28;61.09;97223.00;5001071;28;104697;-67
2023/10/29 08:22:46;;;;;;;3.10;1.80;;;;;;;13.31;61.39;97222.56;5001283;28;103188;-66
2023/10/29 08:25:19;;;;;;;3.35;1.70;;;;;;;13.40;61.84;97215.13;4998768;28;102849;-66
2023/10/29 08:27:47;;;;;;;2.78;1.80;;;;;;;13.47;61.92;97217.69;4995339;28;103852;-66
2023/10/29 08:30:15;;;;;;;3.70;1.83;;;;;;;13.52;62.79;97223.16;5000961;28;106026;-66
2023/10/29 08:32:47;;;;;;;4.85;2.40;;;;;;;13.55;63.72;97236.03;5000116;28;103212;-66
2023/10/29 08:35:17;;;;;;;5.88;2.58;;;;;;;13.58;63.18;97240.91;4998283;28;102656;-67
2023/10/29 08:37:45;;;;;;;3.92;2.00;;;;;;;13.64;63.11;97242.66;5001822;28;104089;-66
2023/10/29 08:40:14;;;;;;;3.88;2.13;;;;;;;13.66;61.16;97253.88;4995550;28;103398;-66
2023/10/29 08:42:44;;;;;;;2.95;1.70;;;;;;;13.74;63.25;97250.94;4999896;28;103052;-66
2023/10/29 08:45:13;;;;;;;4.07;2.30;;;;;;;13.80;63.34;97259.88;5001084;28;102700;-67
2023/10/29 08:47:55;;;;;;;3.80;2.00;;;;;;;13.72;63.06;97255.66;4999888;28;102658;-66
2023/10/29 08:50:28;;;;;;;3.42;1.90;;;;;;;13.71;62.40;97255.91;4998111;28;103323;-65
2023/10/29 08:52:56;;;;;;;4.53;2.53;;;;;;;13.75;62.70;97255.22;4999158;28;104244;-66
2023/10/29 08:55:24;;;;;;;3.55;2.22;;;;;;;13.73;62.67;97248.50;4997556;28;103895;-66
2023/10/29 08:57:54;;;;;;;3.80;1.70;;;;;;;13.78;61.83;97243.31;5001308;28;102725;-65
2023/10/29 09:00:22;;;;;;;2.28;1.50;;;;;;;13.92;63.32;97239.44;4999878;28;103397;-67
2023/10/29 09:02:52;;;;;;;3.72;2.13;;;;;;;14.03;63.22;97234.38;5000042;28;102926;-67
2023/10/29 09:05:24;;;;;;;5.45;2.35;;;;;;;13.99;64.10;97222.56;4998637;28;103041;-67
2023/10/29 09:07:54;;;;;;;4.55;2.30;;;;;;;14.01;63.96;97229.28;5004095;28;103030;-66
2023/10/29 09:10:22;;;;;;;5.30;2.97;;;;;;;14.02;62.02;97212.28;4976693;28;103115;-66
2023/10/29 09:12:50;;;;;;;6.50;3.88;;;;;;;14.14;61.82;97208.84;5014990;27;103128;-67
2023/10/29 09:15:19;;;;;;;4.93;2.90;;;;;;;14.26;62.38;97210.47;4996716;28;102826;-66
2023/10/29 09:17:49;;;;;;;7.05;4.07;;;;;;;14.38;61.71;97215.84;4984710;28;104195;-65
2023/10/29 09:20:19;;;;;;;6.75;4.20;;;;;;;14.36;61.57;97212.59;4997494;28;104093;-67
2023/10/29 09:22:48;;;;;;;4.85;2.30;;;;;;;14.24;59.09;97207.25;4988338;28;104176;-67
2023/10/29 09:25:18;;;;;;;3.60;2.10;;;;;;;14.36;60.04;97211.81;4991976;28;103112;-66
2023/10/29 09:27:53;;;;;;;4.20;2.00;;;;;;;14.22;59.03;97211.97;4997898;28;103905;-66
2023/10/29 09:30:21;;;;;;;4.35;1.85;;;;;;;14.27;59.01;97198.00;5000769;28;103100;-65
2023/10/29 09:32:48;;;;;;;3.67;2.00;;;;;;;14.29;59.86;97201.22;4999631;28;103320;-66
2023/10/29 09:35:19;;;;;;;4.70;2.35;;;;;;;14.27;59.61;97184.69;4992915;28;102867;-66
2023/10/29 09:37:48;;;;;;;4.43;2.00;;;;;;;14.26;60.16;97185.72;4998258;28;104339;-66
2023/10/29 09:40:19;;;;;;;5.43;2.05;;;;;;;14.22;59.79;97184.56;4997009;28;103310;-67
2023/10/29 09:42:53;;;;;;;3.70;1.80;;;;;;;14.25;59.15;97189.41;4998039;28;103169;-67
2023/10/29 09:45:24;;;;;;;5.70;2.05;;;;;;;14.20;58.54;97199.94;4996338;28;103143;-68
2023/10/29 09:47:53;;;;;;;5.68;2.50;;;;;;;14.03;59.01;97191.78;4997901;28;102947;-67
2023/10/29 09:50:23;;;;;;;4.15;2.20;;;;;;;14.16;59.39;97188.94;4994112;28;103846;-67
2023/10/29 09:52:55;;;;;;;5.50;2.00;;;;;;;14.29;60.43;97179.91;4998552;28;103293;-66
2023/10/29 09:55:23;;;;;;;3.40;2.03;;;;;;;14.22;60.30;97180.03;4992572;28;102759;-66
2023/10/29 09:57:51;;;;;;;5.10;1.90;;;;;;;14.29;59.81;97187.91;4996172;28;104217;-66
2023/10/29 10:00:19;;;;;;;3.00;1.73;;;;;;;14.30;59.79;97181.56;4997732;28;103292;-67
2023/10/29 10:02:52;;;;;;;4.05;2.15;;;;;;;14.26;59.38;97169.75;4994471;28;103181;-67
2023/10/29 10:05:22;;;;;;;2.67;1.80;;;;;;;14.32;59.65;97158.19;4993918;28;103339;-67
2023/10/29 10:07:52;;;;;;;4.82;2.10;;;;;;;14.50;59.80;97161.78;4997473;28;102764;-68
2023/10/29 10:10:22;;;;;;;5.32;2.20;;;;;;;14.51;60.21;97161.53;4997934;28;103348;-66
2023/10/29 10:12:52;;;;;;;4.03;2.13;;;;;;;14.43;59.67;97154.69;4999310;28;103267;-66
2023/10/29 10:15:23;;;;;;;3.58;2.00;;;;;;;14.44;59.36;97158.19;4999574;28;102616;-66
2023/10/29 10:18:00;;;;;;;3.95;1.90;;;;;;;14.25;59.91;97158.28;5000240;28;103941;-66
2023/10/29 10:20:29;;;;;;;4.03;2.05;;;;;;;14.18;58.81;97146.91;4995122;28;104128;-66
2023/10/29 10:22:57;;;;;;;5.90;2.40;;;;;;;14.23;60.09;97164.88;4992477;28;103283;-66
2023/10/29 10:25:27;;;;;;;4.43;2.72;;;;;;;14.15;60.92;97157.22;4995695;28;102692;-67
2023/10/29 10:27:57;;;;;;;3.72;2.22;;;;;;;14.15;62.07;97147.38;4996757;28;102708;-66
2023/10/29 10:30:30;;;;;;;3.58;2.00;;;;;;;14.11;62.74;97146.22;4994251;28;104314;-66
2023/10/29 10:33:12;;;;;;;3.22;2.00;;;;;;;14.30;63.88;97144.28;4994456;28;103431;-66
2023/10/29 10:35:44;;;;;;;3.88;1.92;;;;;;;14.36;62.97;97146.03;4997965;28;102635;-66
2023/10/29 10:38:13;;;;;;;6.63;3.20;;;;;;;14.43;62.27;97144.03;4998681;28;102814;-65
2023/10/29 10:40:44;;;;;;;4.30;2.40;;;;;;;14.46;62.23;97149.97;4979346;28;103606;-67
2023/10/29 10:43:19;;;;;;;4.97;2.38;;;;;;;14.60;61.54;97146.03;4996336;28;103355;-67
2023/10/29 10:45:50;;;;;;;4.18;2.20;;;;;;;14.69;61.00;97147.31;4999981;28;102804;-66
2023/10/29 10:48:18;;;;;;;4.25;2.10;;;;;;;14.78;60.72;97142.47;4998834;28;104126;-66
2023/10/29 10:50:47;;;;;;;6.25;2.40;;;;;;;14.75;59.41;97135.75;4994634;28;103680;-66
2023/10/29 10:53:17;;;;;;;3.83;2.08;;;;;;;14.80;59.30;97142.22;4997466;28;103228;-66
2023/10/29 10:55:49;;;;;;;3.53;2.00;;;;;;;14.80;58.45;97126.22;4992912;28;102744;-66
2023/10/29 10:58:30;;;;;;;4.82;2.10;;;;;;;14.84;57.97;97127.38;4998330;28;103341;-66
2023/10/29 11:00:59;;;;;;;4.38;1.80;;;;;;;14.82;56.21;97132.16;4998876;28;103484;-66
2023/10/29 11:03:31;;;;;;;5.18;2.05;;;;;;;14.92;57.88;97140.34;4996564;28;103278;-66
2023/10/29 11:06:01;;;;;;;2.90;1.80;;;;;;;14.86;56.79;97135.97;4998364;28;102663;-66
2023/10/29 11:08:29;;;;;;;5.55;2.78;;;;;;;14.85;57.62;97129.00;4995581;28;103870;-66
2023/10/29 11:11:01;;;;;;;5.53;2.70;;;;;;;14.83;57.30;97131.09;4996352;28;103368;-66
2023/10/29 11:13:30;;;;;;;4.25;1.98;;;;;;;14.79;57.35;97122.75;4997349;28;103271;-67
2023/10/29 11:16:05;;;;;;;3.60;2.03;;;;;;;14.82;57.25;97118.81;4998563;28;102613;-66
2023/10/29 11:18:34;;;;;;;4.65;2.25;;;;;;;14.82;57.18;97108.16;4998958;28;103997;-66
2023/10/29 11:21:06;;;;;;;5.45;2.85;;;;;;;14.84;57.31;97112.22;4992679;28;103240;-66
2023/10/29 11:23:34;;;;;;;4.45;2.30;;;;;;;14.94;57.57;97095.59;4996924;28;102981;-66
2023/10/29 11:26:21;;;;;;;5.53;2.22;;;;;;;14.96;56.98;97082.03;4995393;28;102725;-66
2023/10/29 11:28:51;;;;;;;10.23;2.85;;;;;;;14.94;57.05;97092.94;4993894;28;104086;-66
2023/10/29 11:31:20;;;;;;;5.43;2.50;;;;;;;15.09;57.55;97098.59;4994886;28;103221;-66
2023/10/29 11:34:09;;;;;;;4.57;2.38;;;;;;;15.23;56.65;97087.63;4992055;28;104520;-66
2023/10/29 11:36:38;;;;;;;6.68;2.40;;;;;;;15.39;56.53;97081.56;4992501;28;102685;-66
2023/10/29 11:39:31;;;;;;;4.47;1.95;;;;;;;15.59;56.27;97083.78;4993987;28;104364;-66
2023/10/29 11:42:00;;;;;;;3.97;2.20;;;;;;;15.54;55.52;97077.53;4995151;28;104192;-66
2023/10/29 11:44:29;;;;;;;4.50;2.05;;;;;;;15.59;56.16;97072.31;4997256;28;103228;-66
2023/10/29 11:47:05;;;;;;;6.43;2.60;;;;;;;15.96;55.36;97068.41;4993778;28;102703;-66
2023/10/29 11:50:06;;;;;;;4.90;2.15;;;;;;;15.92;55.04;97057.38;4993344;28;102720;-65
2023/10/29 11:52:43;;;;;;;3.60;2.05;;;;;;;15.82;55.61;97046.53;4996279;28;103736;-66
2023/10/29 11:55:12;;;;;;;5.00;2.13;;;;;;;15.80;55.69;97041.41;4990734;28;104103;-66
2023/10/29 11:57:49;;;;;;;4.03;2.38;;;;;;;15.89;55.40;97036.50;4997468;28;102702;-66
2023/10/29 12:00:17;;;;;;;5.40;2.42;;;;;;;15.96;55.40;97028.34;4988425;28;102991;-66
2023/10/29 12:02:46;;;;;;;3.75;2.05;;;;;;;16.10;55.04;97031.47;4995398;28;104089;-66
2023/10/29 12:05:16;;;;;;;4.53;2.55;;;;;;;16.30;53.99;97029.09;4997701;28;103270;-66
2023/10/29 12:07:44;;;;;;;5.53;3.20;;;;;;;16.98;52.97;97028.91;4997460;28;103802;-71
2023/10/29 12:10:12;;;;;;;4.53;2.70;;;;;;;17.35;51.55;97032.78;4996056;28;104205;-71
2023/10/29 12:12:40;;;;;;;6.20;2.55;;;;;;;17.66;50.94;97041.91;4996196;28;104403;-71
2023/10/29 12:15:16;;;;;;;4.85;2.30;;;;;;;18.22;50.49;97032.69;4997358;28;103428;-66
2023/10/29 12:17:46;;;;;;;5.68;2.60;;;;;;;18.27;49.40;97038.06;4978110;28;102696;-66
2023/10/29 12:20:22;;;;;;;3.97;2.63;;;;;;;18.68;47.57;97030.28;4963913;27;102800;-66
2023/10/29 12:22:57;;;;;;;5.60;2.97;;;;;;;18.92;47.70;97035.22;5008406;28;103919;-66
2023/10/29 12:25:31;;;;;;;8.15;2.45;;;;;;;19.48;46.96;97036.41;4996481;28;103229;-66
2023/10/29 12:28:19;;;;;;;5.15;2.20;;;;;;;19.82;44.86;97041.31;4987229;22;102951;-66
2023/10/29 12:30:58;;;;;;;3.67;1.85;;;;;;;19.65;42.91;97037.00;4956820;28;103781;-66
2023/10/29 12:33:58;;;;;;;2.83;1.60;;;;;;;19.77;43.70;97043.97;4956957;28;103099;-66
2023/10/29 12:49:03;;;;;;;2.75;1.50;;;;;;;19.04;41.48;97027.75;4986530;28;103570;-65
2023/10/29 12:51:42;;;;;;;2.63;1.48;;;;;;;19.09;42.40;97018.09;4981376;28;103199;-66
2023/10/29 12:54:14;;;;;;;3.10;1.50;;;;;;;19.03;41.45;97015.41;4972439;28;102705;-71
2023/10/29 12:56:51;;;;;;;2.25;1.10;;;;;;;18.97;40.66;97015.63;4987116;28;102683;-67
2023/10/29 12:59:25;;;;;;;4.45;1.30;;;;;;;19.01;40.21;97022.91;4980306;28;103729;-67
2023/10/29 13:01:55;;;;;;;1.77;1.15;;;;;;;19.02;41.62;97015.66;4987054;28;103285;-66
2023/10/29 13:04:27;;;;;;;3.45;1.40;;;;;;;19.09;41.08;97012.72;4971019;28;102678;-71
2023/10/29 13:06:57;;;;;;;2.95;1.27;;;;;;;19.11;40.81;97010.59;4977570;28;102761;-66
2023/10/29 13:09:28;;;;;;;2.03;1.38;;;;;;;19.26;41.25;97017.84;4988719;28;104185;-70
2023/10/29 13:11:58;;;;;;;2.15;1.52;;;;;;;19.77;40.50;97012.56;4995848;28;103174;-68
2023/10/29 13:14:29;;;;;;;2.53;1.40;;;;;;;19.65;39.85;97012.00;4974610;28;102725;-67
2023/10/29 13:16:57;;;;;;;2.38;1.48;;;;;;;19.66;39.60;97014.44;4985530;28;102952;-66
2023/10/29 13:19:27;;;;;;;2.38;1.40;;;;;;;19.82;39.10;97011.75;4969841;28;103409;-71
2023/10/29 13:21:55;;;;;;;3.25;1.60;;;;;;;19.76;39.25;96999.41;4980610;28;103253;-66
2023/10/29 13:24:24;;;;;;;2.97;1.55;;;;;;;19.69;39.31;97000.47;4984594;28;103347;-66
2023/10/29 13:26:53;;;;;;;1.73;1.27;;;;;;;19.65;39.60;97004.75;4984571;28;103578;-72
2023/10/29 13:29:21;;;;;;;3.05;1.17;;;;;;;19.57;38.86;97007.97;4981675;28;104514;-72
2023/10/29 13:31:49;;;;;;;3.55;1.38;;;;;;;19.60;40.15;97002.06;4989698;28;103332;-72
2023/10/29 13:34:18;;;;;;;1.83;1.20;;;;;;;19.58;40.90;97009.59;4982975;28;102695;-71
2023/10/29 13:36:49;;;;;;;2.30;1.20;;;;;;;19.55;40.25;97002.88;4989757;28;103635;-72
2023/10/29 13:39:17;;;;;;;1.88;1.17;;;;;;;19.53;40.64;96996.97;4974487;28;103782;-67
2023/10/29 13:41:48;;;;;;;2.90;1.60;;;;;;;19.46;40.54;97009.03;4982573;28;103262;-66
2023/10/29 13:44:17;;;;;;;2.72;1.50;;;;;;;19.38;40.65;97007.69;4984977;28;102820;-66
2023/10/29 13:46:45;;;;;;;2.78;1.40;;;;;;;19.34;40.10;97014.66;4983064;28;103538;-67
2023/10/29 13:49:13;;;;;;;2.50;1.40;;;;;;;19.35;40.48;97010.91;4982863;28;103689;-66